Time;durP1;ratioP1;P1;durP2;ratioP2;P2;SDS_P1;SDS_P2;PMS_P1;PMS_P2;Temp;Humidity;BMP_temperature;BMP_pressure;BME280_temperature;BME280_humidity;BME280_pressure;Samples;Min_cycle;Max_cycle;Signal;HPM_P1;HPM_P2
2023/12/23 00:02:21;;;;;;;0.90;0.50;;;8.10;99.90;;;;;;4968697;28;20449;-84
2023/12/23 00:04:47;;;;;;;1.70;1.40;;;8.00;99.90;;;;;;4955430;28;20461;-81
2023/12/23 00:07:14;;;;;;;1.07;0.50;;;7.80;99.90;;;;;;4969059;28;20177;-78
2023/12/23 00:09:41;;;;;;;3.97;0.68;;;8.00;99.90;;;;;;4965804;28;20226;-81
2023/12/23 00:12:09;;;;;;;0.80;0.80;;;7.90;99.90;;;;;;4964069;28;20199;-82
2023/12/23 00:14:36;;;;;;;1.75;0.50;;;;;;;;;;4981251;28;20230;-81
2023/12/23 00:17:02;;;;;;;1.38;0.90;;;8.10;99.90;;;;;;4980538;28;20190;-83
2023/12/23 00:19:28;;;;;;;5.00;1.00;;;8.10;99.90;;;;;;4981504;28;20287;-82
2023/12/23 00:21:57;;;;;;;0.40;0.40;;;;;;;;;;4993183;28;20668;-83
2023/12/23 00:24:26;;;;;;;0.90;0.43;;;8.10;99.90;;;;;;4992261;28;20521;-80
2023/12/23 00:26:53;;;;;;;4.15;1.38;;;8.10;99.90;;;;;;4967479;28;20198;-80
2023/12/23 00:29:18;;;;;;;3.92;0.63;;;8.10;99.90;;;;;;4971532;28;20241;-82
2023/12/23 00:31:44;;;;;;;0.47;0.47;;;8.10;99.90;;;;;;4971774;28;20472;-76
2023/12/23 00:34:09;;;;;;;0.97;0.60;;;8.00;99.90;;;;;;4975504;28;20243;-83
2023/12/23 00:36:35;;;;;;;2.03;0.90;;;8.10;99.90;;;;;;4978047;28;20179;-79
2023/12/23 00:39:00;;;;;;;0.60;0.30;;;8.00;99.90;;;;;;4996596;28;20202;-80
2023/12/23 00:41:26;;;;;;;2.00;0.50;;;8.00;99.90;;;;;;4978046;28;20183;-81
2023/12/23 00:43:51;;;;;;;0.77;0.50;;;8.10;99.90;;;;;;4977550;28;20203;-81
2023/12/23 00:46:18;;;;;;;0.40;0.30;;;;;;;;;;4973885;28;20198;-83
2023/12/23 00:48:43;;;;;;;3.33;0.95;;;8.00;99.90;;;;;;4977554;28;20195;-80
2023/12/23 00:51:09;;;;;;;0.40;0.30;;;8.10;99.90;;;;;;4979795;28;20283;-80
2023/12/23 00:53:34;;;;;;;0.60;0.50;;;8.00;99.90;;;;;;4975118;28;20260;-81
2023/12/23 00:56:00;;;;;;;1.20;1.03;;;8.00;99.90;;;;;;4974737;28;20216;-84
2023/12/23 00:58:26;;;;;;;0.67;0.67;;;7.90;99.90;;;;;;4977729;28;20225;-81
2023/12/23 01:00:52;;;;;;;4.73;0.63;;;7.90;99.90;;;;;;4975833;28;20297;-80
2023/12/23 01:03:17;;;;;;;1.88;1.25;;;7.80;99.90;;;;;;4962694;28;20184;-81
2023/12/23 01:05:43;;;;;;;1.13;0.70;;;7.80;99.90;;;;;;4972440;28;20218;-80
2023/12/23 01:08:08;;;;;;;6.93;1.03;;;7.70;99.90;;;;;;4955064;28;20643;-79
2023/12/23 01:10:34;;;;;;;0.80;0.80;;;7.70;99.90;;;;;;4942141;28;20326;-81
2023/12/23 01:12:59;;;;;;;0.87;0.80;;;7.70;99.90;;;;;;4973720;28;20188;-78
2023/12/23 01:15:25;;;;;;;0.33;0.30;;;7.80;99.90;;;;;;4985732;28;20928;-80
2023/12/23 01:17:50;;;;;;;0.87;0.60;;;7.80;99.90;;;;;;4971811;28;20199;-81
2023/12/23 01:20:16;;;;;;;15.93;2.37;;;7.80;99.90;;;;;;4981813;28;20238;-78
2023/12/23 01:22:41;;;;;;;4.03;1.47;;;7.80;99.90;;;;;;4984777;28;20195;-83
2023/12/23 01:25:07;;;;;;;0.70;0.50;;;7.90;99.90;;;;;;4976848;28;20733;-85
2023/12/23 01:27:33;;;;;;;1.92;1.77;;;7.90;99.90;;;;;;4976525;28;20195;-80
2023/12/23 01:29:58;;;;;;;1.13;1.10;;;8.00;99.90;;;;;;4982514;28;20222;-84
2023/12/23 01:32:24;;;;;;;12.63;2.17;;;7.70;99.90;;;;;;4992894;28;20358;-83
2023/12/23 01:34:49;;;;;;;2.77;1.17;;;7.90;99.90;;;;;;4985551;28;20841;-81
2023/12/23 01:37:15;;;;;;;0.60;0.57;;;7.80;99.90;;;;;;5002390;28;20193;-81
2023/12/23 01:39:40;;;;;;;2.93;1.10;;;7.90;99.90;;;;;;4964992;28;20249;-80
2023/12/23 01:42:06;;;;;;;4.37;1.20;;;7.90;99.90;;;;;;4968122;28;20191;-83
2023/12/23 01:44:32;;;;;;;0.93;0.70;;;;;;;;;;4967287;28;20195;-80
2023/12/23 01:47:00;;;;;;;0.60;0.50;;;7.90;99.90;;;;;;4964237;28;20194;-80
2023/12/23 01:49:27;;;;;;;1.58;0.80;;;7.90;99.90;;;;;;4972958;28;20469;-77
2023/12/23 01:51:54;;;;;;;1.55;1.02;;;7.90;99.90;;;;;;4970809;28;20194;-81
2023/12/23 01:54:21;;;;;;;6.47;0.73;;;7.90;99.90;;;;;;4951699;28;20812;-81
2023/12/23 01:56:48;;;;;;;1.02;0.63;;;8.00;99.90;;;;;;5005932;28;20195;-79
2023/12/23 01:59:15;;;;;;;1.67;0.65;;;8.00;99.90;;;;;;4970516;28;20234;-78
2023/12/23 02:01:41;;;;;;;0.95;0.50;;;7.90;99.90;;;;;;4966683;28;20210;-78
2023/12/23 02:04:06;;;;;;;2.05;0.70;;;8.00;99.90;;;;;;4987200;28;20191;-80
2023/12/23 02:06:32;;;;;;;0.70;0.60;;;8.00;99.90;;;;;;4978042;28;20210;-85
2023/12/23 02:08:58;;;;;;;1.50;1.03;;;8.00;99.90;;;;;;4971847;28;20704;-80
2023/12/23 02:11:51;;;;;;;5.60;0.57;;;8.00;99.90;;;;;;4981875;28;20223;-86
2023/12/23 02:14:28;;;;;;;0.52;0.30;;;8.00;99.90;;;;;;4973891;28;20204;-80
2023/12/23 02:16:54;;;;;;;1.02;0.60;;;8.00;99.90;;;;;;4987319;28;20266;-82
2023/12/23 02:19:19;;;;;;;1.40;1.30;;;8.00;99.90;;;;;;4987647;28;20266;-80
2023/12/23 02:21:45;;;;;;;0.90;0.47;;;;;;;;;;4985763;28;20458;-82
2023/12/23 02:24:11;;;;;;;1.13;1.13;;;8.00;99.90;;;;;;4983871;28;20259;-87
2023/12/23 02:26:39;;;;;;;1.60;0.40;;;8.00;99.90;;;;;;4982832;28;20822;-81
2023/12/23 02:29:06;;;;;;;12.45;0.60;;;8.00;99.90;;;;;;4986344;28;20210;-82
2023/12/23 02:31:33;;;;;;;0.63;0.50;;;7.90;99.90;;;;;;4984197;28;20190;-83
2023/12/23 02:33:59;;;;;;;1.63;1.15;;;8.00;99.90;;;;;;4979942;28;20187;-82
2023/12/23 02:36:25;;;;;;;0.60;0.40;;;8.00;99.90;;;;;;4982526;28;20215;-77
2023/12/23 02:38:51;;;;;;;1.17;0.57;;;;;;;;;;4968597;28;20206;-84
2023/12/23 02:41:17;;;;;;;0.60;0.50;;;;;;;;;;4986914;28;20259;-80
2023/12/23 02:43:43;;;;;;;1.50;0.30;;;;;;;;;;4988722;28;21742;-80
2023/12/23 02:46:09;;;;;;;0.60;0.40;;;8.00;99.90;;;;;;4974432;28;20443;-79
2023/12/23 02:48:34;;;;;;;0.40;0.30;;;8.00;99.90;;;;;;4976584;28;20535;-83
2023/12/23 02:51:00;;;;;;;0.63;0.47;;;;;;;;;;4989623;28;20187;-84
2023/12/23 02:53:26;;;;;;;1.35;0.82;;;8.00;99.90;;;;;;4981033;28;20195;-85
2023/12/23 02:55:51;;;;;;;3.70;0.63;;;8.10;99.90;;;;;;4983742;28;20230;-81
2023/12/23 02:58:17;;;;;;;2.00;0.63;;;8.00;99.90;;;;;;4972169;28;20292;-82
2023/12/23 03:00:42;;;;;;;1.37;1.17;;;8.10;99.90;;;;;;4967918;28;20226;-83
2023/12/23 03:03:08;;;;;;;1.40;0.50;;;8.10;99.90;;;;;;4977987;28;20183;-80
2023/12/23 03:05:33;;;;;;;1.23;1.03;;;8.10;99.90;;;;;;4980340;28;20191;-82
2023/12/23 03:07:59;;;;;;;1.80;1.00;;;;;;;;;;4975944;28;20218;-82
2023/12/23 03:10:25;;;;;;;1.00;0.80;;;8.10;99.90;;;;;;5003647;28;20331;-84
2023/12/23 03:12:50;;;;;;;2.87;0.80;;;8.10;99.90;;;;;;4960727;28;20206;-83
2023/12/23 03:15:15;;;;;;;0.40;0.40;;;8.10;99.90;;;;;;4968197;28;20217;-82
2023/12/23 03:17:41;;;;;;;2.30;0.60;;;;;;;;;;4980562;28;20190;-82
2023/12/23 03:20:08;;;;;;;3.17;0.60;;;8.10;99.90;;;;;;4965270;28;20199;-83
2023/12/23 03:22:34;;;;;;;1.05;0.52;;;8.10;99.90;;;;;;4972228;28;20441;-83
2023/12/23 03:24:59;;;;;;;1.10;0.80;;;8.10;99.90;;;;;;4975917;28;20210;-80
2023/12/23 03:27:26;;;;;;;13.50;1.10;;;8.10;99.90;;;;;;4975876;28;20282;-83
2023/12/23 03:29:52;;;;;;;0.80;0.50;;;8.10;99.90;;;;;;4982017;28;20214;-80
2023/12/23 03:32:17;;;;;;;5.80;1.60;;;8.10;99.90;;;;;;4968693;28;20881;-84
2023/12/23 03:34:43;;;;;;;1.53;0.67;;;8.10;99.90;;;;;;4986897;28;20218;-79
2023/12/23 03:37:09;;;;;;;3.00;2.13;;;8.00;99.90;;;;;;5002981;28;20204;-81
2023/12/23 03:39:35;;;;;;;0.50;0.50;;;8.00;99.90;;;;;;4984768;28;20282;-80
2023/12/23 03:42:00;;;;;;;0.60;0.43;;;8.00;99.90;;;;;;4975540;28;20289;-80
2023/12/23 03:44:26;;;;;;;0.80;0.60;;;8.00;99.90;;;;;;4977968;28;20183;-82
2023/12/23 03:46:52;;;;;;;6.50;1.00;;;8.00;99.90;;;;;;4975422;28;20576;-81
2023/12/23 03:49:17;;;;;;;0.47;0.40;;;7.90;99.90;;;;;;4972055;28;20206;-77
2023/12/23 03:51:43;;;;;;;2.37;1.03;;;7.90;99.90;;;;;;4959808;28;20186;-82
2023/12/23 03:54:08;;;;;;;0.40;0.40;;;7.90;99.90;;;;;;4966151;28;20243;-77
2023/12/23 03:56:34;;;;;;;1.30;0.83;;;7.90;99.90;;;;;;4981246;28;20779;-81
2023/12/23 03:58:59;;;;;;;3.40;0.60;;;7.90;99.90;;;;;;4981687;28;20210;-82
2023/12/23 04:01:25;;;;;;;4.67;0.97;;;;;;;;;;4963775;28;20227;-79
2023/12/23 04:03:51;;;;;;;2.60;0.70;;;7.70;99.90;;;;;;5035698;28;20285;-79
2023/12/23 04:06:16;;;;;;;9.47;1.47;;;7.70;99.90;;;;;;4991358;28;20438;-83
2023/12/23 04:08:42;;;;;;;2.20;0.80;;;;;;;;;;4959881;28;20178;-79
2023/12/23 04:11:08;;;;;;;1.40;0.67;;;7.70;99.90;;;;;;4977558;28;20225;-79
2023/12/23 04:13:34;;;;;;;0.50;0.50;;;7.60;99.90;;;;;;4987747;28;20559;-82
2023/12/23 04:16:05;;;;;;;1.60;1.02;;;7.60;99.90;;;;;;4996747;28;20226;-81
2023/12/23 04:18:31;;;;;;;6.45;0.95;;;;;;;;;;4976463;28;20190;-83
2023/12/23 04:20:57;;;;;;;1.60;0.90;;;7.60;99.90;;;;;;4980972;28;20726;-82
2023/12/23 04:23:23;;;;;;;0.60;0.40;;;7.60;99.90;;;;;;4989052;28;20190;-82
2023/12/23 04:25:48;;;;;;;2.00;0.60;;;7.70;99.90;;;;;;4969135;28;20214;-82
2023/12/23 04:28:15;;;;;;;0.70;0.67;;;;;;;;;;4971426;28;20191;-82
2023/12/23 04:30:41;;;;;;;3.22;0.47;;;;;;;;;;4971948;28;20263;-80
2023/12/23 04:33:07;;;;;;;0.70;0.70;;;7.80;99.90;;;;;;4971726;28;20197;-80
2023/12/23 04:35:33;;;;;;;4.53;1.20;;;7.80;99.90;;;;;;4978404;28;21058;-81
2023/12/23 04:37:58;;;;;;;1.47;0.80;;;7.80;99.90;;;;;;4969001;28;20272;-80
2023/12/23 04:40:25;;;;;;;0.77;0.57;;;;;;;;;;4988667;28;20203;-82
2023/12/23 04:42:50;;;;;;;0.50;0.35;;;7.80;99.90;;;;;;4993300;28;20195;-78
2023/12/23 04:45:16;;;;;;;1.90;0.73;;;;;;;;;;4985536;28;20199;-85
2023/12/23 04:47:42;;;;;;;1.50;0.70;;;7.80;99.90;;;;;;4963504;28;20191;-79
2023/12/23 04:50:07;;;;;;;3.47;0.83;;;7.80;99.90;;;;;;4973436;28;21309;-85
2023/12/23 04:52:33;;;;;;;2.20;0.90;;;;;;;;;;4978358;28;20212;-81
2023/12/23 04:54:59;;;;;;;4.80;1.17;;;7.90;99.90;;;;;;5042204;28;20578;-81
2023/12/23 04:57:25;;;;;;;1.63;0.50;;;;;;;;;;4969634;28;20464;-82
2023/12/23 04:59:51;;;;;;;0.80;0.80;;;;;;;;;;4977416;28;20473;-81
2023/12/23 05:02:16;;;;;;;3.33;1.20;;;7.90;99.90;;;;;;5000762;28;20510;-82
2023/12/23 05:04:46;;;;;;;0.80;0.70;;;;;;;;;;4963806;28;21141;-79
2023/12/23 05:07:11;;;;;;;4.32;1.10;;;7.90;99.90;;;;;;5045550;28;20198;-82
2023/12/23 05:09:37;;;;;;;0.60;0.60;;;7.90;99.90;;;;;;4977983;28;20210;-83
2023/12/23 05:12:03;;;;;;;2.10;0.63;;;7.90;99.90;;;;;;4983993;28;20344;-80
2023/12/23 05:14:28;;;;;;;4.97;1.80;;;7.90;99.90;;;;;;4981026;28;20187;-78
2023/12/23 05:16:54;;;;;;;2.20;1.20;;;;;;;;;;4988255;28;20964;-80
2023/12/23 05:19:20;;;;;;;3.90;0.67;;;;;;;;;;4985541;28;20195;-81
2023/12/23 05:21:46;;;;;;;1.17;0.50;;;7.90;99.90;;;;;;4978784;28;20437;-81
2023/12/23 05:24:12;;;;;;;0.80;0.63;;;7.80;99.90;;;;;;4963101;28;20465;-82
2023/12/23 05:26:38;;;;;;;2.67;0.85;;;;;;;;;;4968739;28;20197;-81
2023/12/23 05:29:04;;;;;;;1.63;1.27;;;;;;;;;;4977416;28;20223;-81
2023/12/23 05:31:29;;;;;;;1.13;0.95;;;7.90;99.90;;;;;;4998689;28;20552;-81
2023/12/23 05:33:56;;;;;;;0.80;0.80;;;;;;;;;;4975829;28;20914;-80
2023/12/23 05:36:22;;;;;;;1.02;0.50;;;7.90;99.90;;;;;;4995547;28;20234;-79
2023/12/23 05:38:48;;;;;;;0.43;0.43;;;;;;;;;;4985519;28;20222;-87
2023/12/23 05:41:14;;;;;;;1.33;0.80;;;7.80;99.90;;;;;;4983053;28;20194;-82
2023/12/23 05:43:39;;;;;;;1.00;0.90;;;7.80;99.90;;;;;;4970329;28;20504;-80
2023/12/23 05:46:05;;;;;;;0.40;0.40;;;;;;;;;;4965610;28;20231;-82
2023/12/23 05:48:31;;;;;;;0.83;0.70;;;7.70;99.90;;;;;;4989298;28;20219;-81
2023/12/23 05:50:57;;;;;;;1.33;1.00;;;;;;;;;;4978530;28;20474;-78
2023/12/23 05:53:23;;;;;;;0.50;0.50;;;;;;;;;;4989426;28;20199;-79
2023/12/23 05:55:49;;;;;;;0.90;0.50;;;;;;;;;;5000792;28;20466;-81
2023/12/23 05:58:14;;;;;;;3.40;0.70;;;7.70;99.90;;;;;;4981346;28;21216;-80
2023/12/23 06:00:40;;;;;;;3.33;0.40;;;7.70;99.90;;;;;;4986252;28;20461;-79
2023/12/23 06:03:06;;;;;;;1.70;0.80;;;;;;;;;;4964579;28;21187;-82
2023/12/23 06:05:31;;;;;;;0.60;0.60;;;7.70;99.90;;;;;;4977948;28;20210;-77
2023/12/23 06:07:58;;;;;;;8.23;0.70;;;;;;;;;;4977957;28;20461;-79
2023/12/23 06:10:23;;;;;;;0.50;0.40;;;7.80;99.90;;;;;;4979786;28;20218;-80
2023/12/23 06:12:50;;;;;;;0.73;0.73;;;7.80;99.90;;;;;;5007260;28;20423;-79
2023/12/23 06:15:15;;;;;;;0.57;0.57;;;7.80;99.90;;;;;;4979357;28;20219;-81
2023/12/23 06:17:41;;;;;;;1.17;1.10;;;7.70;99.90;;;;;;4991290;28;20244;-81
2023/12/23 06:20:07;;;;;;;0.97;0.57;;;7.70;99.90;;;;;;4983583;28;20493;-83
2023/12/23 06:22:32;;;;;;;0.97;0.80;;;7.70;99.90;;;;;;4993413;28;20290;-81
2023/12/23 06:24:58;;;;;;;0.40;0.40;;;7.70;99.90;;;;;;4978635;28;20866;-83
2023/12/23 06:27:24;;;;;;;0.40;0.40;;;7.70;99.90;;;;;;4978129;28;20926;-83
2023/12/23 06:29:50;;;;;;;1.40;0.60;;;;;;;;;;4986615;28;20500;-82
2023/12/23 06:32:16;;;;;;;2.35;0.90;;;7.70;99.90;;;;;;5003922;28;20593;-83
2023/12/23 06:34:42;;;;;;;1.47;0.73;;;7.70;99.90;;;;;;4980625;28;20186;-82
2023/12/23 06:37:07;;;;;;;4.30;1.00;;;7.70;99.90;;;;;;4980803;28;20190;-80
2023/12/23 06:39:33;;;;;;;0.60;0.53;;;7.60;99.90;;;;;;4967709;28;20322;-81
2023/12/23 06:41:58;;;;;;;6.90;0.60;;;7.60;99.90;;;;;;4978024;28;20266;-83
2023/12/23 06:44:24;;;;;;;3.80;0.77;;;7.60;99.90;;;;;;4968970;28;20248;-81
2023/12/23 06:46:51;;;;;;;3.43;0.70;;;7.50;99.90;;;;;;4976169;28;21206;-81
2023/12/23 06:49:17;;;;;;;1.30;1.05;;;7.50;99.90;;;;;;4979154;28;20214;-85
2023/12/23 06:51:42;;;;;;;2.23;0.77;;;7.50;99.90;;;;;;4976079;28;20191;-82
2023/12/23 06:54:08;;;;;;;2.00;1.13;;;7.50;99.90;;;;;;4990181;28;20742;-80
2023/12/23 06:56:33;;;;;;;0.50;0.50;;;7.50;99.90;;;;;;4974816;28;20215;-80
2023/12/23 06:59:01;;;;;;;2.70;1.30;;;;;;;;;;4978347;28;20236;-79
2023/12/23 07:01:36;;;;;;;1.23;0.80;;;7.50;99.90;;;;;;4994825;28;20206;-79
2023/12/23 07:04:01;;;;;;;0.77;0.77;;;7.40;99.90;;;;;;4973671;28;20801;-82
2023/12/23 07:06:27;;;;;;;1.10;1.00;;;7.50;99.90;;;;;;4974281;28;20252;-85
2023/12/23 07:08:52;;;;;;;0.43;0.30;;;7.50;99.90;;;;;;4970194;28;20687;-81
2023/12/23 07:11:18;;;;;;;2.70;1.17;;;7.50;99.90;;;;;;4972341;28;20604;-79
2023/12/23 07:13:43;;;;;;;0.90;0.67;;;7.50;99.90;;;;;;4982150;28;20641;-79
2023/12/23 07:16:09;;;;;;;1.30;1.10;;;7.50;99.90;;;;;;4968748;28;20223;-80
2023/12/23 07:18:34;;;;;;;0.83;0.70;;;7.50;99.90;;;;;;4977932;28;20178;-81
2023/12/23 07:21:00;;;;;;;0.80;0.60;;;7.50;99.90;;;;;;4968600;28;20218;-81
2023/12/23 07:23:26;;;;;;;0.80;0.50;;;7.50;99.90;;;;;;4971941;28;20274;-82
2023/12/23 07:25:51;;;;;;;0.40;0.30;;;7.50;99.90;;;;;;4981896;28;20261;-82
2023/12/23 07:28:17;;;;;;;7.63;0.60;;;7.50;99.90;;;;;;4980906;28;20649;-82
2023/12/23 07:30:44;;;;;;;1.00;0.80;;;7.50;99.90;;;;;;4973496;28;20218;-83
2023/12/23 07:33:12;;;;;;;0.50;0.50;;;7.50;99.90;;;;;;4967922;28;20452;-86
2023/12/23 07:35:37;;;;;;;0.75;0.50;;;7.40;99.90;;;;;;4973897;28;20276;-86
2023/12/23 07:38:03;;;;;;;3.07;0.50;;;7.40;99.90;;;;;;4981486;28;20434;-82
2023/12/23 07:40:28;;;;;;;0.30;0.30;;;7.40;99.90;;;;;;4969415;28;20211;-84
2023/12/23 07:42:54;;;;;;;2.00;0.70;;;7.40;99.90;;;;;;4987074;28;20189;-80
2023/12/23 07:45:21;;;;;;;0.60;0.40;;;7.40;99.90;;;;;;4974904;28;22041;-85
2023/12/23 07:47:47;;;;;;;0.50;0.50;;;7.40;99.90;;;;;;4961122;28;22044;-82
2023/12/23 07:50:13;;;;;;;1.15;0.57;;;7.40;99.90;;;;;;4965023;28;20278;-83
2023/12/23 07:52:39;;;;;;;2.87;0.37;;;7.40;99.90;;;;;;4977342;28;20811;-82
2023/12/23 07:55:06;;;;;;;0.60;0.40;;;7.40;99.90;;;;;;4972651;28;20282;-83
2023/12/23 07:57:31;;;;;;;0.30;0.30;;;7.40;99.90;;;;;;4973196;28;20191;-84
2023/12/23 07:59:57;;;;;;;0.50;0.50;;;7.50;99.90;;;;;;4978302;28;20280;-79
2023/12/23 08:02:23;;;;;;;2.00;0.93;;;7.50;99.90;;;;;;4985261;28;20198;-85
2023/12/23 08:04:48;;;;;;;0.80;0.60;;;7.50;99.90;;;;;;4977283;28;20453;-81
2023/12/23 08:07:14;;;;;;;0.30;0.30;;;7.60;99.90;;;;;;4986823;28;20405;-80
2023/12/23 08:09:39;;;;;;;0.60;0.40;;;7.70;99.90;;;;;;4994610;28;21125;-86
2023/12/23 08:12:08;;;;;;;0.40;0.20;;;7.60;99.90;;;;;;4978620;28;20199;-82
2023/12/23 08:14:34;;;;;;;0.40;0.20;;;7.70;99.90;;;;;;4967497;28;20203;-85
2023/12/23 08:17:00;;;;;;;0.60;0.50;;;7.70;99.90;;;;;;4978927;28;20251;-82
2023/12/23 08:19:25;;;;;;;0.40;0.30;;;7.70;99.90;;;;;;4955495;28;20203;-83
2023/12/23 08:21:51;;;;;;;1.50;0.30;;;7.70;99.90;;;;;;4981354;28;20441;-81
2023/12/23 08:24:17;;;;;;;0.30;0.30;;;7.70;99.90;;;;;;4972645;28;20646;-86
2023/12/23 08:26:42;;;;;;;0.40;0.40;;;7.70;99.90;;;;;;4980379;28;20313;-82
2023/12/23 08:29:08;;;;;;;0.60;0.60;;;7.70;99.90;;;;;;4967148;28;20214;-82
2023/12/23 08:31:33;;;;;;;0.30;0.30;;;7.70;99.90;;;;;;4971144;28;20190;-82
2023/12/23 08:33:59;;;;;;;0.40;0.30;;;7.80;99.90;;;;;;4989273;28;20190;-86
2023/12/23 08:36:24;;;;;;;0.90;0.40;;;7.80;99.90;;;;;;4985929;28;20822;-85
2023/12/23 08:38:50;;;;;;;0.30;0.20;;;7.80;99.90;;;;;;4985091;28;20198;-85
2023/12/23 08:41:15;;;;;;;0.30;0.30;;;7.90;99.90;;;;;;4985070;28;20195;-81
2023/12/23 08:43:41;;;;;;;0.30;0.30;;;7.80;99.90;;;;;;4980989;28;20263;-81
2023/12/23 08:46:07;;;;;;;0.90;0.60;;;7.80;99.90;;;;;;4978706;28;20244;-84
2023/12/23 08:48:33;;;;;;;0.50;0.30;;;7.80;99.90;;;;;;4981431;28;20206;-84
2023/12/23 08:50:58;;;;;;;0.37;0.33;;;7.90;99.90;;;;;;4979840;28;20215;-84
2023/12/23 08:53:24;;;;;;;0.57;0.43;;;7.90;99.90;;;;;;4973382;28;20290;-83
2023/12/23 08:55:50;;;;;;;6.53;0.40;;;8.00;99.90;;;;;;4964875;28;20278;-82
2023/12/23 08:58:15;;;;;;;0.80;0.50;;;7.90;99.90;;;;;;4964340;28;20840;-82
2023/12/23 09:00:41;;;;;;;0.30;0.30;;;7.90;99.90;;;;;;4974842;28;20682;-82
2023/12/23 09:03:07;;;;;;;0.30;0.20;;;8.00;99.90;;;;;;4983817;28;21264;-83
2023/12/23 09:05:32;;;;;;;0.57;0.57;;;8.00;99.90;;;;;;4981296;28;20213;-78
2023/12/23 09:07:58;;;;;;;0.40;0.30;;;8.10;99.90;;;;;;4965422;28;20508;-79
2023/12/23 09:10:23;;;;;;;0.70;0.70;;;8.00;99.90;;;;;;4966143;28;20217;-81
2023/12/23 09:12:49;;;;;;;1.70;0.40;;;8.00;99.90;;;;;;4966733;28;20228;-80
2023/12/23 09:15:15;;;;;;;0.40;0.30;;;8.00;99.90;;;;;;4987792;28;20227;-78
2023/12/23 09:17:40;;;;;;;1.80;1.70;;;8.00;99.90;;;;;;4990604;28;20198;-80
2023/12/23 09:20:06;;;;;;;0.30;0.20;;;8.00;99.90;;;;;;4974936;28;20211;-83
2023/12/23 09:22:32;;;;;;;0.30;0.30;;;7.90;99.90;;;;;;4980490;28;20191;-83
2023/12/23 09:24:58;;;;;;;0.60;0.37;;;7.90;99.90;;;;;;4987099;28;20281;-84
2023/12/23 09:27:23;;;;;;;0.30;0.20;;;7.90;99.90;;;;;;4969102;28;20200;-80
2023/12/23 09:29:49;;;;;;;0.40;0.30;;;7.90;99.90;;;;;;4962878;28;21451;-78
2023/12/23 09:32:15;;;;;;;0.40;0.30;;;8.00;99.90;;;;;;4990103;28;20225;-82
2023/12/23 09:34:40;;;;;;;0.40;0.30;;;8.00;99.90;;;;;;4978349;28;20194;-79
2023/12/23 09:37:06;;;;;;;0.50;0.33;;;;;;;;;;4966218;28;20195;-82
2023/12/23 09:39:31;;;;;;;0.50;0.50;;;8.00;99.90;;;;;;4992892;28;20842;-81
2023/12/23 09:41:59;;;;;;;0.40;0.30;;;8.00;99.90;;;;;;4965075;28;20456;-85
2023/12/23 09:44:25;;;;;;;0.40;0.40;;;;;;;;;;4962937;28;20321;-82
2023/12/23 09:46:51;;;;;;;0.30;0.30;;;8.10;99.90;;;;;;4980778;28;20195;-84
2023/12/23 09:49:17;;;;;;;0.50;0.43;;;8.10;99.90;;;;;;4962111;28;20501;-83
2023/12/23 09:51:44;;;;;;;0.40;0.30;;;8.10;99.90;;;;;;4973753;28;20767;-81
2023/12/23 09:54:15;;;;;;;1.77;0.30;;;8.10;99.90;;;;;;4965117;28;20567;-81
2023/12/23 09:56:41;;;;;;;0.30;0.20;;;8.10;99.90;;;;;;4986570;28;20300;-81
2023/12/23 09:59:06;;;;;;;0.40;0.30;;;8.10;99.90;;;;;;4952180;28;20314;-79
2023/12/23 10:01:32;;;;;;;0.30;0.20;;;8.10;99.90;;;;;;4976205;28;20206;-83
2023/12/23 10:03:57;;;;;;;0.40;0.30;;;9.00;99.90;;;;;;4954475;28;20250;-81
2023/12/23 10:06:23;;;;;;;0.30;0.30;;;8.20;99.90;;;;;;4965119;28;20204;-82
2023/12/23 10:08:49;;;;;;;0.40;0.30;;;6.30;99.90;;;;;;4962768;28;20220;-83
2023/12/23 10:11:15;;;;;;;0.80;0.80;;;8.20;99.90;;;;;;4977642;28;20195;-79
2023/12/23 10:13:41;;;;;;;0.40;0.32;;;8.20;99.90;;;;;;4988236;28;20190;-83
2023/12/23 10:16:08;;;;;;;0.30;0.20;;;8.20;99.90;;;;;;4959210;28;20214;-84
2023/12/23 10:18:33;;;;;;;0.40;0.30;;;8.20;99.90;;;;;;4976461;28;20179;-82
2023/12/23 10:20:59;;;;;;;0.80;0.50;;;8.10;99.90;;;;;;4978226;28;20222;-85
2023/12/23 10:23:25;;;;;;;0.30;0.20;;;;;;;;;;4979236;28;20210;-84
2023/12/23 10:25:52;;;;;;;0.50;0.33;;;8.10;99.90;;;;;;4972971;28;20186;-81
2023/12/23 10:28:21;;;;;;;4.65;0.40;;;8.10;99.90;;;;;;4958176;28;20453;-83
2023/12/23 10:30:50;;;;;;;0.40;0.40;;;8.10;99.90;;;;;;4976573;28;20221;-81
2023/12/23 10:33:17;;;;;;;0.40;0.30;;;8.10;99.90;;;;;;4981314;28;20187;-83
2023/12/23 10:35:50;;;;;;;0.30;0.30;;;8.30;99.90;;;;;;4978508;28;20222;-82
2023/12/23 10:38:18;;;;;;;0.40;0.30;;;8.30;99.90;;;;;;4982283;28;20199;-84
2023/12/23 10:40:51;;;;;;;0.77;0.30;;;8.30;99.90;;;;;;4979161;28;20207;-81
2023/12/23 10:43:18;;;;;;;0.30;0.20;;;8.20;99.90;;;;;;4984664;28;20193;-83
2023/12/23 10:45:48;;;;;;;0.47;0.40;;;8.20;99.90;;;;;;4986997;28;20203;-80
2023/12/23 10:48:16;;;;;;;0.30;0.20;;;8.20;99.90;;;;;;4969701;28;20194;-82
2023/12/23 10:50:43;;;;;;;0.30;0.20;;;8.20;99.90;;;;;;4972161;28;20207;-81
2023/12/23 10:53:12;;;;;;;0.30;0.20;;;8.20;99.90;;;;;;4955009;28;20665;-80
2023/12/23 10:55:39;;;;;;;0.35;0.30;;;8.10;99.90;;;;;;4963404;28;20570;-82
2023/12/23 10:58:09;;;;;;;0.30;0.20;;;8.20;99.90;;;;;;4988362;28;21061;-83
2023/12/23 11:00:36;;;;;;;0.30;0.20;;;8.20;99.90;;;;;;4961002;28;20206;-82
2023/12/23 11:03:03;;;;;;;0.30;0.30;;;8.20;99.90;;;;;;4968112;28;20663;-81
2023/12/23 11:05:31;;;;;;;0.30;0.20;;;8.30;99.90;;;;;;4975636;28;20685;-81
2023/12/23 11:07:59;;;;;;;0.40;0.30;;;8.30;99.90;;;;;;4967796;28;20224;-81
2023/12/23 11:10:28;;;;;;;0.50;0.40;;;8.30;99.90;;;;;;4968912;28;20218;-80
2023/12/23 11:12:55;;;;;;;0.30;0.20;;;8.30;99.90;;;;;;4970340;28;20950;-81
2023/12/23 11:15:20;;;;;;;0.30;0.30;;;8.30;99.90;;;;;;4967132;28;20245;-80
2023/12/23 11:17:46;;;;;;;0.40;0.20;;;8.30;99.90;;;;;;4970882;28;20190;-83
2023/12/23 11:20:37;;;;;;;0.30;0.30;;;8.30;99.90;;;;;;4978775;28;20206;-81
2023/12/23 11:23:33;;;;;;;0.30;0.20;;;8.30;99.90;;;;;;4968724;28;20198;-80
2023/12/23 11:26:03;;;;;;;0.30;0.20;;;8.30;99.90;;;;;;4972623;28;20222;-83
2023/12/23 11:28:35;;;;;;;0.30;0.20;;;8.40;99.90;;;;;;4977523;28;20413;-82
2023/12/23 11:31:03;;;;;;;0.40;0.30;;;8.40;99.90;;;;;;4988224;28;20321;-83
2023/12/23 11:33:35;;;;;;;0.30;0.20;;;8.40;99.90;;;;;;4988903;28;20187;-83
2023/12/23 11:36:01;;;;;;;0.40;0.30;;;8.60;99.90;;;;;;4978776;28;20209;-82
2023/12/23 11:38:50;;;;;;;0.30;0.20;;;8.60;99.90;;;;;;4967544;28;20190;-79
2023/12/23 11:41:20;;;;;;;0.82;0.43;;;8.50;99.90;;;;;;4989640;28;20252;-83
2023/12/23 11:43:47;;;;;;;0.40;0.30;;;8.50;99.90;;;;;;4978052;28;20197;-80
2023/12/23 11:46:14;;;;;;;0.30;0.20;;;8.40;99.90;;;;;;4981252;28;20689;-81
2023/12/23 11:48:40;;;;;;;0.30;0.20;;;8.30;99.90;;;;;;4972739;28;20191;-80
2023/12/23 11:51:08;;;;;;;0.30;0.20;;;8.20;99.90;;;;;;4979722;28;20225;-81
2023/12/23 11:53:34;;;;;;;0.30;0.20;;;8.20;99.90;;;;;;4975488;28;20278;-80
2023/12/23 11:56:00;;;;;;;0.40;0.33;;;8.10;99.90;;;;;;4966943;28;20219;-82
2023/12/23 11:58:26;;;;;;;0.30;0.30;;;8.10;99.90;;;;;;4969676;28;20218;-83
2023/12/23 12:00:53;;;;;;;0.30;0.30;;;7.90;99.90;;;;;;4967893;28;20257;-83
2023/12/23 12:03:18;;;;;;;0.55;0.30;;;7.90;99.90;;;;;;4975559;28;20194;-82
2023/12/23 12:05:44;;;;;;;0.40;0.30;;;7.90;99.90;;;;;;4970155;28;20195;-80
2023/12/23 12:08:09;;;;;;;0.70;0.30;;;7.90;99.90;;;;;;4976451;28;20210;-82
2023/12/23 12:10:35;;;;;;;0.30;0.20;;;7.90;99.90;;;;;;4979883;28;20218;-80
2023/12/23 12:13:01;;;;;;;0.30;0.20;;;8.60;99.90;;;;;;4980819;28;20202;-83
2023/12/23 12:15:26;;;;;;;0.40;0.40;;;7.90;99.90;;;;;;4951507;28;20298;-82
2023/12/23 12:17:52;;;;;;;0.30;0.30;;;7.90;99.90;;;;;;4976386;28;20225;-83
2023/12/23 12:20:18;;;;;;;0.30;0.30;;;7.90;99.90;;;;;;4966011;28;20696;-79
2023/12/23 12:22:45;;;;;;;0.40;0.30;;;7.90;99.90;;;;;;4989260;28;21730;-81
2023/12/23 12:25:11;;;;;;;0.30;0.30;;;7.80;99.90;;;;;;4967866;28;20194;-84
2023/12/23 12:27:38;;;;;;;0.60;0.40;;;7.90;99.90;;;;;;4980160;28;20215;-83
2023/12/23 12:30:10;;;;;;;0.30;0.28;;;7.90;99.90;;;;;;4979983;28;20716;-83
2023/12/23 12:32:42;;;;;;;0.30;0.30;;;8.00;99.90;;;;;;4992242;28;20794;-82
2023/12/23 12:35:10;;;;;;;0.30;0.20;;;8.00;99.90;;;;;;4963915;28;20210;-80
2023/12/23 12:37:36;;;;;;;0.30;0.30;;;8.10;99.90;;;;;;4969164;28;20985;-82
2023/12/23 12:40:02;;;;;;;0.30;0.20;;;8.00;99.90;;;;;;4991841;28;20274;-79
2023/12/23 12:42:27;;;;;;;0.40;0.40;;;8.00;99.90;;;;;;4980230;28;21016;-82
2023/12/23 12:45:00;;;;;;;0.30;0.30;;;8.00;99.90;;;;;;4985338;28;20613;-80
2023/12/23 12:47:28;;;;;;;0.30;0.20;;;8.10;99.90;;;;;;4980264;28;22358;-82
2023/12/23 12:50:00;;;;;;;0.50;0.30;;;7.90;99.90;;;;;;4971317;28;20219;-84
2023/12/23 12:52:26;;;;;;;0.70;0.30;;;8.10;99.90;;;;;;4978417;28;20291;-80
2023/12/23 12:54:51;;;;;;;0.30;0.20;;;8.10;99.90;;;;;;4979719;28;20428;-82
2023/12/23 12:57:17;;;;;;;0.40;0.27;;;7.80;99.90;;;;;;4973132;28;20277;-81
2023/12/23 12:59:43;;;;;;;0.30;0.20;;;7.80;99.90;;;;;;4972694;28;20289;-82
2023/12/23 13:02:08;;;;;;;0.30;0.20;;;7.80;99.90;;;;;;4976950;28;20179;-79
2023/12/23 13:04:34;;;;;;;0.43;0.30;;;7.80;99.90;;;;;;4979324;28;20191;-80